createdAt,value
2019-05-22T17:10:41.674Z,8.80
2019-05-22T17:13:12.002Z,3.55
2019-05-22T17:18:05.395Z,3.42
2019-05-22T17:20:32.477Z,3.60
2019-05-22T17:22:58.342Z,4.00
2019-05-22T17:25:24.829Z,3.87
2019-05-22T17:27:51.814Z,3.98
2019-05-22T17:30:20.808Z,3.00
2019-05-22T17:32:47.470Z,2.92
2019-05-22T17:35:15.930Z,3.02
2019-05-22T17:37:41.908Z,2.62
2019-05-22T17:40:12.789Z,2.55
2019-05-22T17:42:39.075Z,2.37
2019-05-22T17:45:09.205Z,2.60
2019-05-22T17:47:35.173Z,2.33
2019-05-22T17:50:03.045Z,3.17
2019-05-22T17:52:29.699Z,2.30
2019-05-22T17:54:56.750Z,2.62
2019-05-22T17:57:23.196Z,2.83
2019-05-22T17:59:50.954Z,2.98
2019-05-22T18:02:19.299Z,2.83
2019-05-22T18:04:45.290Z,2.58
2019-05-22T18:07:11.326Z,2.90
2019-05-22T18:09:37.359Z,3.08
2019-05-22T18:12:07.832Z,3.10
2019-05-22T18:14:35.397Z,3.08
2019-05-22T18:17:01.557Z,2.98
2019-05-22T18:19:28.128Z,3.87
2019-05-22T18:21:53.980Z,3.25
2019-05-22T18:24:19.975Z,2.85
2019-05-22T18:26:46.236Z,3.33
2019-05-22T18:29:12.101Z,3.35
2019-05-22T18:31:38.069Z,3.35
2019-05-22T18:34:04.113Z,3.05
2019-05-22T18:36:29.956Z,3.37
2019-05-22T18:38:55.948Z,3.40
2019-05-22T18:41:21.921Z,3.42
2019-05-22T18:43:47.874Z,3.58
2019-05-22T18:46:13.923Z,3.90
2019-05-22T18:48:39.907Z,3.30
2019-05-22T18:51:06.835Z,3.27
2019-05-22T18:53:33.451Z,3.15
2019-05-22T18:55:59.324Z,3.20
2019-05-22T18:58:25.283Z,3.52
2019-05-22T19:00:51.461Z,3.30
2019-05-22T19:03:17.635Z,3.77
2019-05-22T19:05:43.502Z,3.40
2019-05-22T19:08:09.778Z,2.90
2019-05-22T19:10:36.043Z,3.22
2019-05-22T19:13:02.101Z,3.27
2019-05-22T19:15:28.293Z,3.55
2019-05-22T19:17:54.456Z,2.98
2019-05-22T19:20:20.325Z,3.30
2019-05-22T19:22:59.300Z,3.35
2019-05-22T19:25:14.591Z,3.17
2019-05-22T19:27:40.551Z,2.85
2019-05-22T19:30:07.776Z,3.35
2019-05-22T19:32:34.185Z,2.92
2019-05-22T19:35:00.174Z,3.30
2019-05-22T19:37:26.079Z,3.12
2019-05-22T19:39:52.067Z,3.00
2019-05-22T19:42:18.262Z,3.22
2019-05-22T19:44:44.241Z,2.40
2019-05-22T19:47:10.452Z,2.80
2019-05-22T19:49:37.028Z,2.77
2019-05-22T19:52:05.593Z,2.40
2019-05-22T19:54:31.978Z,2.35
2019-05-22T19:56:58.107Z,2.70
2019-05-22T19:59:24.473Z,2.80
2019-05-22T20:01:50.527Z,1.90
2019-05-22T20:04:16.999Z,2.55
2019-05-22T20:06:42.866Z,2.40
2019-05-22T20:09:11.000Z,1.98
2019-05-22T20:11:37.115Z,2.10
2019-05-22T20:14:04.487Z,2.05
2019-05-22T20:16:30.515Z,2.00
2019-05-22T20:18:56.891Z,1.92
2019-05-22T20:21:22.777Z,2.07
2019-05-22T20:23:49.045Z,1.92
2019-05-22T20:26:15.310Z,1.90
2019-05-22T20:28:41.186Z,1.63
2019-05-22T20:31:08.167Z,1.90
2019-05-22T20:33:34.027Z,1.90
2019-05-22T20:35:59.895Z,1.83
2019-05-22T20:38:25.785Z,2.13
2019-05-22T20:40:51.780Z,2.40
2019-05-22T20:43:19.424Z,2.23
2019-05-22T20:45:45.975Z,2.00
2019-05-22T20:48:16.679Z,2.43
2019-05-22T20:50:43.594Z,2.53
2019-05-22T20:53:12.611Z,2.73
2019-05-22T20:55:39.484Z,2.90
2019-05-22T20:58:05.549Z,3.13
2019-05-22T21:00:32.004Z,2.90
2019-05-22T21:03:03.289Z,3.53
2019-05-22T21:05:31.025Z,3.60
2019-05-22T21:08:00.714Z,3.53
2019-05-22T21:10:27.564Z,3.43
2019-05-22T21:12:54.939Z,3.90
2019-05-22T21:15:22.272Z,3.40
2019-05-22T21:17:49.085Z,3.57
2019-05-22T21:20:19.664Z,4.10
2019-05-22T21:22:46.286Z,3.43
2019-05-22T21:25:12.888Z,3.30
2019-05-22T21:27:41.858Z,3.63
2019-05-22T21:30:09.747Z,3.37
2019-05-22T21:32:36.804Z,3.37
2019-05-22T21:35:05.162Z,3.03
2019-05-22T21:37:31.333Z,3.50
2019-05-22T21:39:57.398Z,3.03
2019-05-22T21:42:24.287Z,2.60
2019-05-22T21:44:50.216Z,3.03
2019-05-22T21:47:18.025Z,3.43
2019-05-22T21:49:43.890Z,3.17
2019-05-22T21:52:10.747Z,2.70
2019-05-22T21:54:36.628Z,2.87
2019-05-22T21:57:02.791Z,3.60
2019-05-22T21:59:29.068Z,3.10
2019-05-22T22:02:12.366Z,3.57
2019-05-22T22:04:39.037Z,3.30
2019-05-22T22:07:05.103Z,3.37
2019-05-22T22:09:31.777Z,3.03
2019-05-22T22:11:58.435Z,3.23
2019-05-22T22:14:26.040Z,3.90
2019-05-22T22:16:51.912Z,3.57
2019-05-22T22:19:19.200Z,2.90
2019-05-22T22:21:45.160Z,3.57
2019-05-22T22:24:11.155Z,3.80
2019-05-22T22:26:37.432Z,3.73
2019-05-22T22:29:04.379Z,4.10
2019-05-22T22:31:31.470Z,3.97
2019-05-22T22:34:03.671Z,4.07
2019-05-22T22:36:29.687Z,4.03
2019-05-22T22:38:56.271Z,3.57
2019-05-22T22:41:23.460Z,4.03
2019-05-22T22:43:49.335Z,3.90
2019-05-22T22:46:39.014Z,4.33
2019-05-22T22:49:09.362Z,4.10
2019-05-22T22:51:35.742Z,4.03
2019-05-22T22:54:04.128Z,4.03
2019-05-22T22:56:30.195Z,4.43
2019-05-22T22:58:56.158Z,4.57
2019-05-22T23:01:27.081Z,4.50
2019-05-22T23:03:56.049Z,4.43
2019-05-22T23:06:21.911Z,4.37
2019-05-22T23:08:48.384Z,4.33
2019-05-22T23:11:14.859Z,5.03
2019-05-22T23:13:41.025Z,4.50
2019-05-22T23:16:08.598Z,4.63
2019-05-22T23:18:43.181Z,4.30
2019-05-22T23:21:09.223Z,4.83
2019-05-22T23:23:35.704Z,4.73
2019-05-22T23:26:03.659Z,4.67
2019-05-22T23:28:34.578Z,4.40
2019-05-22T23:30:59.034Z,5.03
2019-05-22T23:33:26.186Z,4.47
2019-05-22T23:35:52.741Z,4.70
2019-05-22T23:38:18.629Z,4.93
2019-05-22T23:40:44.791Z,4.73
2019-05-22T23:43:10.643Z,4.97
2019-05-22T23:45:37.475Z,5.10
2019-05-22T23:48:10.898Z,4.63
2019-05-22T23:50:38.335Z,5.13
2019-05-22T23:53:05.086Z,5.57
2019-05-22T23:55:31.454Z,4.73
2019-05-22T23:57:57.814Z,5.13
